Etusivu
METAR-TAF:

METAR-TAF

Lentoasemat :

Pearland Regional Airport

Houston / Pearland, Texas, Yhdysvallat

Leveyspiiri: 29-31-16N, Pituuspiiri: 095-14-31W, korkeus merenpinnasta: 13 m

Tämänhetkinen sää

Tämä raportti tehtiin 56 minuuttia sitten, kello 17.53 UTC
Tuuli 4 kn etelästä/kaakosta
Lämpötila 33°C
Kosteus 53%
Ilmanpaine 1018 hPa
Näkyvyys: 16.1 km
Muutamia pilviä 4000 ft:n korkeudessa
Muutamia pilviä 5500 ft:n korkeudessa

METAR: KLVJ 071753Z AUTO 16004KT 10SM FEW040 FEW055 33/22 A3007 RMK AO2 SLP180 T03330217 10339 20256 50000

Aika: 13:49 (18:49 UTC)


TAF: puuttuu

Säähavainnot ja -ennusteet yli 4000 lentoasemalta (METAR- ja TAF-raportit).

Käytössä olevat sääasemat on merkitty karttaan keltaisilla ja punaisilla pisteillä.

Aseta hiiri pisteen päälle nähdäksesi sääaseman nimen.

Klikkaa sitten nähdäksesi säähavainnot ja -ennusteet.

Kartan vaihtaminen: klikkaa mustalla rastilla varustettuja vihreitä pisteitä, niin voit zoomata sisään; viivalla varustettua vihreää pistettä, niin voit zoomata ulos tai vihreitä nuolia, niin pääset viereisille kartoille.


METAR-TAF: